Time;durP1;ratioP1;P1;durP2;ratioP2;P2;SDS_P1;SDS_P2;PMS_P1;PMS_P2;Temp;Humidity;BMP_temperature;BMP_pressure;BME280_temperature;BME280_humidity;BME280_pressure;Samples;Min_cycle;Max_cycle;Signal;HPM_P1;HPM_P2
2022/03/22 00:00:05;;;;;;;42.20;30.88;;;;;;;;;;4977932;28;20078;-91
2022/03/22 00:02:33;;;;;;;41.88;30.85;;;;;;;;;;4962063;28;20053;-93
2022/03/22 00:04:59;;;;;;;41.25;29.70;;;;;;;;;;4991003;28;20057;-92
2022/03/22 00:07:27;;;;;;;40.78;29.45;;;;;;;;;;4992402;28;20061;-93
2022/03/22 00:09:53;;;;;;;42.63;29.58;;;;;;;;;;4975041;28;20065;-93
2022/03/22 00:12:19;;;;;;;39.72;28.23;;;;;;;;;;4973738;28;20045;-92
2022/03/22 00:14:45;;;;;;;39.15;29.05;;;;;;;;;;4974516;28;20047;-92
2022/03/22 00:17:14;;;;;;;39.97;30.40;;;;;;;;;;4985824;28;20038;-93
2022/03/22 00:19:41;;;;;;;41.03;30.13;;;;;;;;;;4968449;28;20042;-94
2022/03/22 00:22:07;;;;;;;43.67;31.50;;;;;;;;;;4984214;28;20467;-92
2022/03/22 00:24:33;;;;;;;38.42;28.10;;;;;;;;;;4966287;28;20038;-93
2022/03/22 00:26:59;;;;;;;38.47;28.50;;;;;;;;;;4980914;28;20042;-92
2022/03/22 00:29:25;;;;;;;38.70;27.42;;;;;;;;;;4974918;28;20058;-93
2022/03/22 00:31:56;;;;;;;42.83;30.75;;;;;;;;;;4990922;28;20046;-92
2022/03/22 00:34:23;;;;;;;44.65;31.20;;;;;;;;;;4963019;28;20106;-93
2022/03/22 00:36:53;;;;;;;41.25;30.48;;;;;;;;;;4976865;28;20079;-92
2022/03/22 00:39:19;;;;;;;41.20;29.48;;;;;;;;;;4976392;28;20043;-92
2022/03/22 00:41:45;;;;;;;44.72;31.98;;;;;;;;;;4959419;28;20046;-93
2022/03/22 00:44:14;;;;;;;42.13;30.65;;;;;;;;;;4975101;28;20042;-93
2022/03/22 00:46:40;;;;;;;41.70;31.65;;;;;;;;;;4975527;28;20054;-93
2022/03/22 00:49:06;;;;;;;42.83;30.20;;;;;;;;;;4975697;28;20402;-93
2022/03/22 00:51:38;;;;;;;43.17;29.63;;;;;;;;;;4978922;28;20078;-93
2022/03/22 00:54:07;;;;;;;41.42;29.73;;;;;;;;;;4978150;28;20065;-92
2022/03/22 00:56:33;;;;;;;43.20;29.63;;;;;;;;;;4979423;28;20073;-92
2022/03/22 01:01:52;;;;;;;42.33;27.83;;;;;;;;;;4986774;28;20043;-92
2022/03/22 01:04:18;;;;;;;41.58;28.15;;;;;;;;;;4970791;28;20070;-92
2022/03/22 01:06:46;;;;;;;37.72;28.20;;;;;;;;;;4989744;28;20043;-93
2022/03/22 01:09:12;;;;;;;38.25;27.90;;;;;;;;;;4983436;28;20138;-95
2022/03/22 01:11:44;;;;;;;39.03;28.33;;;;;;;;;;4969982;28;20109;-92
2022/03/22 01:14:18;;;;;;;38.78;27.40;;;;;;;;;;4987374;28;20050;-92
2022/03/22 01:16:44;;;;;;;42.50;28.33;;;;;;;;;;4987282;28;20051;-92
2022/03/22 01:19:13;;;;;;;39.55;29.00;;;;;;;;;;4983908;28;20039;-92
2022/03/22 01:21:42;;;;;;;39.70;27.20;;;;;;;;;;4983626;28;20466;-94
2022/03/22 01:24:08;;;;;;;39.05;27.50;;;;;;;;;;4988505;28;20093;-93
2022/03/22 01:26:41;;;;;;;39.28;27.77;;;;;;;;;;4988017;28;20117;-92
2022/03/22 01:29:11;;;;;;;42.22;29.25;;;;;;;;;;4990924;28;20123;-93
2022/03/22 01:31:45;;;;;;;41.25;28.52;;;;;;;;;;4972132;28;20114;-93
2022/03/22 01:34:16;;;;;;;40.78;29.38;;;;;;;;;;4973619;28;20050;-93
2022/03/22 01:36:43;;;;;;;40.85;29.23;;;;;;;;;;4991453;28;20042;-95
2022/03/22 01:39:09;;;;;;;43.25;30.15;;;;;;;;;;4971626;28;20042;-94
2022/03/22 01:41:37;;;;;;;42.25;30.67;;;;;;;;;;4972694;28;20051;-93
2022/03/22 01:44:08;;;;;;;47.63;32.05;;;;;;;;;;4976445;28;20073;-95
2022/03/22 01:46:41;;;;;;;46.75;32.67;;;;;;;;;;4989924;28;20413;-93
2022/03/22 01:49:13;;;;;;;49.25;31.65;;;;;;;;;;4990099;28;20042;-93
2022/03/22 01:51:40;;;;;;;46.97;32.80;;;;;;;;;;4967986;28;20449;-94
2022/03/22 01:54:17;;;;;;;45.65;31.65;;;;;;;;;;4988147;28;20122;-92
2022/03/22 01:56:43;;;;;;;46.58;31.35;;;;;;;;;;4991167;28;20041;-93
2022/03/22 01:59:14;;;;;;;46.13;30.48;;;;;;;;;;4990979;28;20043;-93
2022/03/22 02:07:31;;;;;;;44.83;31.23;;;;;;;;;;4990241;28;20050;-92
2022/03/22 02:10:03;;;;;;;45.00;29.73;;;;;;;;;;4994927;28;20081;-93
2022/03/22 02:12:30;;;;;;;45.50;33.33;;;;;;;;;;4985957;28;20107;-94
2022/03/22 02:15:02;;;;;;;45.55;29.85;;;;;;;;;;4968793;28;20070;-92
2022/03/22 02:17:28;;;;;;;43.03;29.63;;;;;;;;;;4968841;28;20102;-93
2022/03/22 02:19:55;;;;;;;43.20;30.90;;;;;;;;;;4994785;28;20038;-92
2022/03/22 02:22:24;;;;;;;41.25;28.27;;;;;;;;;;4970709;28;20034;-95
2022/03/22 02:24:59;;;;;;;40.05;29.10;;;;;;;;;;4969247;28;20042;-91
2022/03/22 02:27:28;;;;;;;45.80;31.48;;;;;;;;;;4973211;28;20068;-93
2022/03/22 02:29:57;;;;;;;46.67;33.53;;;;;;;;;;4970555;28;20054;-93
2022/03/22 02:32:24;;;;;;;46.40;30.42;;;;;;;;;;4984543;28;20058;-93
2022/03/22 02:34:50;;;;;;;46.90;31.52;;;;;;;;;;4982989;28;20050;-93
2022/03/22 02:37:16;;;;;;;47.78;31.00;;;;;;;;;;4981492;28;20034;-93
2022/03/22 02:39:42;;;;;;;43.97;31.05;;;;;;;;;;4983241;28;20049;-93
2022/03/22 02:42:11;;;;;;;44.83;31.13;;;;;;;;;;4983085;28;20050;-89
2022/03/22 02:44:38;;;;;;;47.58;31.67;;;;;;;;;;4988448;28;20150;-93
2022/03/22 02:47:04;;;;;;;45.30;32.33;;;;;;;;;;4968538;28;20106;-92
2022/03/22 02:49:30;;;;;;;43.75;31.02;;;;;;;;;;4967349;28;20046;-92
2022/03/22 02:51:56;;;;;;;44.03;29.25;;;;;;;;;;4986105;28;20145;-93
2022/03/22 02:54:22;;;;;;;46.65;32.85;;;;;;;;;;4974326;28;20045;-95
2022/03/22 02:56:48;;;;;;;44.42;30.35;;;;;;;;;;4977500;28;20051;-94
2022/03/22 02:59:17;;;;;;;46.58;31.67;;;;;;;;;;4966500;28;20061;-93
2022/03/22 03:01:57;;;;;;;40.53;28.75;;;;;;;;;;4996435;28;20038;-92
2022/03/22 03:04:24;;;;;;;40.65;26.67;;;;;;;;;;4993801;28;20086;-93
2022/03/22 03:06:55;;;;;;;35.67;24.60;;;;;;;;;;4981180;28;20198;-94
2022/03/22 03:09:26;;;;;;;38.75;27.00;;;;;;;;;;4973623;28;20129;-92
2022/03/22 03:11:53;;;;;;;36.30;25.67;;;;;;;;;;4988603;28;20478;-94
2022/03/22 03:17:11;;;;;;;32.85;21.95;;;;;;;;;;4990898;28;20199;-95
2022/03/22 03:19:42;;;;;;;31.23;21.83;;;;;;;;;;4989048;28;20046;-93
2022/03/22 03:22:11;;;;;;;31.73;22.65;;;;;;;;;;4989362;28;20097;-93
2022/03/22 03:24:49;;;;;;;38.78;27.75;;;;;;;;;;4972765;28;20042;-94
2022/03/22 03:27:15;;;;;;;36.58;25.15;;;;;;;;;;4988800;28;20056;-94
2022/03/22 03:29:44;;;;;;;38.58;27.52;;;;;;;;;;4992887;28;20138;-92
2022/03/22 03:32:11;;;;;;;40.33;27.77;;;;;;;;;;4989278;28;20046;-94
2022/03/22 03:34:40;;;;;;;35.53;25.42;;;;;;;;;;4986455;28;20140;-93
2022/03/22 03:37:16;;;;;;;37.53;26.45;;;;;;;;;;5005522;28;20053;-94
2022/03/22 03:39:45;;;;;;;37.65;25.90;;;;;;;;;;4984132;28;20042;-94
2022/03/22 03:42:14;;;;;;;38.53;27.08;;;;;;;;;;4966796;28;20053;-95
2022/03/22 03:47:36;;;;;;;37.35;27.17;;;;;;;;;;4989369;28;20126;-94
2022/03/22 03:50:08;;;;;;;38.92;25.80;;;;;;;;;;4990576;28;20043;-94
2022/03/22 03:52:41;;;;;;;37.35;25.20;;;;;;;;;;4995944;28;20043;-94
2022/03/22 03:55:20;;;;;;;39.78;27.67;;;;;;;;;;4987983;28;20107;-93
2022/03/22 03:57:49;;;;;;;39.38;27.40;;;;;;;;;;4985172;28;20074;-92
2022/03/22 04:00:15;;;;;;;41.45;27.27;;;;;;;;;;4992327;28;20117;-92
2022/03/22 04:02:43;;;;;;;37.40;26.00;;;;;;;;;;4996949;28;20056;-94
2022/03/22 04:05:18;;;;;;;37.35;25.83;;;;;;;;;;5010972;28;20054;-92
2022/03/22 04:07:54;;;;;;;;;;;;;;;;;;;;;
2022/03/22 04:10:34;;;;;;;38.20;26.23;;;;;;;;;;4955312;29;20074;-91
2022/03/22 04:13:01;;;;;;;35.40;26.25;;;;;;;;;;4922843;29;20043;-92
2022/03/22 04:15:29;;;;;;;36.35;26.10;;;;;;;;;;4921955;29;20050;-93
2022/03/22 04:17:59;;;;;;;37.97;25.40;;;;;;;;;;4922049;29;20051;-93
2022/03/22 04:20:26;;;;;;;40.42;27.23;;;;;;;;;;4917038;29;20051;-94
2022/03/22 04:22:52;;;;;;;43.55;27.60;;;;;;;;;;4927636;29;20082;-91
2022/03/22 04:25:20;;;;;;;41.42;27.05;;;;;;;;;;4907672;29;20111;-94
2022/03/22 04:33:29;;;;;;;41.83;30.52;;;;;;;;;;4927251;29;20102;-93
2022/03/22 04:35:58;;;;;;;41.03;29.05;;;;;;;;;;4908727;29;20048;-93
2022/03/22 04:38:29;;;;;;;45.67;28.88;;;;;;;;;;4926278;29;20083;-93
2022/03/22 04:40:56;;;;;;;44.08;28.88;;;;;;;;;;4955674;28;20138;-93
2022/03/22 04:43:25;;;;;;;43.20;29.90;;;;;;;;;;4991964;28;20061;-93
2022/03/22 04:45:56;;;;;;;43.58;29.42;;;;;;;;;;4991684;28;20046;-94
2022/03/22 04:48:35;;;;;;;36.85;26.63;;;;;;;;;;4996121;28;20050;-90
2022/03/22 05:09:19;;;;;;;39.88;29.23;;;;;;;;;;4981396;28;20054;-94
2022/03/22 05:11:48;;;;;;;44.22;30.08;;;;;;;;;;4945893;28;20051;-95
2022/03/22 05:14:14;;;;;;;39.40;28.42;;;;;;;;;;4962154;28;20122;-92
2022/03/22 05:16:40;;;;;;;42.08;27.23;;;;;;;;;;4964451;28;20177;-93
2022/03/22 05:19:12;;;;;;;39.30;28.33;;;;;;;;;;4969740;28;20038;-93
2022/03/22 05:21:40;;;;;;;45.25;31.70;;;;;;;;;;4964833;28;20050;-94
2022/03/22 05:24:09;;;;;;;45.30;31.55;;;;;;;;;;4947470;28;20375;-95
2022/03/22 05:26:38;;;;;;;41.17;27.08;;;;;;;;;;4961663;28;20038;-94
2022/03/22 05:29:09;;;;;;;39.42;26.65;;;;;;;;;;4963768;28;20070;-93
2022/03/22 05:31:36;;;;;;;44.95;27.88;;;;;;;;;;4965677;28;20398;-93
2022/03/22 05:34:04;;;;;;;44.25;28.92;;;;;;;;;;4964173;28;20105;-94
2022/03/22 05:36:30;;;;;;;42.20;28.13;;;;;;;;;;4946825;28;20035;-94
2022/03/22 05:38:59;;;;;;;41.20;28.75;;;;;;;;;;4968683;28;20039;-94
2022/03/22 05:41:35;;;;;;;47.05;30.00;;;;;;;;;;4948357;28;20142;-93
2022/03/22 05:44:05;;;;;;;41.90;28.25;;;;;;;;;;4961041;28;20322;-94
2022/03/22 05:46:33;;;;;;;44.65;30.42;;;;;;;;;;4944386;28;20473;-96
2022/03/22 05:49:05;;;;;;;43.63;28.45;;;;;;;;;;4943300;28;20141;-93
2022/03/22 05:51:31;;;;;;;41.22;28.25;;;;;;;;;;4960860;28;20409;-94
2022/03/22 05:54:00;;;;;;;43.63;28.65;;;;;;;;;;4960032;28;20051;-94
2022/03/22 05:56:29;;;;;;;42.10;29.13;;;;;;;;;;4951222;28;20054;-93
2022/03/22 05:58:58;;;;;;;46.42;29.92;;;;;;;;;;4956532;28;20055;-93
2022/03/22 06:01:44;;;;;;;41.15;28.25;;;;;;;;;;4957465;28;20053;-94
2022/03/22 06:04:12;;;;;;;39.77;29.37;;;;;;;;;;4993291;28;20055;-94
2022/03/22 06:10:32;;;;;;;45.60;29.40;;;;;;;;;;4919963;28;20078;-92
2022/03/22 06:13:15;;;;;;;43.22;28.42;;;;;;;;;;4958452;28;20142;-94
2022/03/22 06:16:10;;;;;;;41.03;29.05;;;;;;;;;;4954464;28;20039;-92
2022/03/22 06:18:45;;;;;;;46.42;30.08;;;;;;;;;;4953782;28;20490;-94
2022/03/22 06:21:11;;;;;;;46.47;29.00;;;;;;;;;;4947266;28;20058;-93
2022/03/22 06:23:43;;;;;;;41.30;27.70;;;;;;;;;;4971082;28;20051;-94
2022/03/22 06:26:20;;;;;;;42.78;30.27;;;;;;;;;;4974019;28;20049;-95
2022/03/22 06:28:54;;;;;;;43.00;28.88;;;;;;;;;;4954504;28;20050;-94
2022/03/22 06:31:23;;;;;;;39.95;28.73;;;;;;;;;;4959446;28;20065;-94
2022/03/22 06:34:01;;;;;;;44.15;29.48;;;;;;;;;;4944782;28;20038;-92
2022/03/22 06:40:05;;;;;;;43.65;29.73;;;;;;;;;;4927160;28;20039;-95
2022/03/22 06:42:40;;;;;;;42.58;29.85;;;;;;;;;;4962050;28;20081;-94
2022/03/22 06:45:19;;;;;;;41.65;28.65;;;;;;;;;;4970134;28;20050;-94
2022/03/22 06:47:52;;;;;;;46.70;31.20;;;;;;;;;;4948823;28;20094;-94
2022/03/22 06:53:48;;;;;;;41.80;28.88;;;;;;;;;;4988129;28;20058;-93
2022/03/22 06:56:42;;;;;;;;;;;;;;;;;;;;;
2022/03/22 07:00:04;;;;;;;;;;;;;;;;;;;;;
2022/03/22 07:06:00;;;;;;;45.22;30.63;;;;;;;;;;4995564;28;20049;-95
2022/03/22 07:08:38;;;;;;;45.47;30.67;;;;;;;;;;4970815;28;20069;-95
2022/03/22 07:14:05;;;;;;;45.78;32.10;;;;;;;;;;4962879;28;20438;-95
2022/03/22 07:16:40;;;;;;;45.45;31.83;;;;;;;;;;4947414;28;20058;-95
2022/03/22 07:19:09;;;;;;;47.00;31.60;;;;;;;;;;4949400;28;20051;-92
2022/03/22 07:21:40;;;;;;;47.45;32.25;;;;;;;;;;4953421;28;20035;-94
2022/03/22 07:24:09;;;;;;;46.22;32.78;;;;;;;;;;4949902;28;20513;-95
2022/03/22 07:26:35;;;;;;;47.25;31.92;;;;;;;;;;4973591;28;20042;-94
2022/03/22 07:29:06;;;;;;;45.83;32.85;;;;;;;;;;4975775;28;20042;-95
2022/03/22 07:31:38;;;;;;;48.83;33.30;;;;;;;;;;4977171;28;20399;-95
2022/03/22 07:34:17;;;;;;;46.92;32.10;;;;;;;;;;4956121;28;20129;-91
2022/03/22 07:36:44;;;;;;;46.80;33.30;;;;;;;;;;4972047;28;20125;-94
2022/03/22 07:39:13;;;;;;;46.70;32.92;;;;;;;;;;4949862;28;20114;-94
2022/03/22 07:41:43;;;;;;;45.95;30.15;;;;;;;;;;4955239;28;20023;-94
2022/03/22 07:44:12;;;;;;;48.47;34.28;;;;;;;;;;4961177;28;20054;-95
2022/03/22 07:46:51;;;;;;;48.40;31.67;;;;;;;;;;4971964;28;20077;-93
2022/03/22 07:55:08;;;;;;;42.88;31.60;;;;;;;;;;5253933;23;20055;-92
2022/03/22 07:57:34;;;;;;;45.42;31.40;;;;;;;;;;4974476;28;20042;-96
2022/03/22 08:00:00;;;;;;;44.13;29.13;;;;;;;;;;4978115;28;20038;-94
2022/03/22 08:02:26;;;;;;;49.55;31.60;;;;;;;;;;4967572;28;20054;-94
2022/03/22 08:04:55;;;;;;;45.00;31.90;;;;;;;;;;4985992;28;20045;-93
2022/03/22 08:07:21;;;;;;;45.45;31.73;;;;;;;;;;4963592;28;20512;-95
2022/03/22 08:09:47;;;;;;;43.08;30.65;;;;;;;;;;4972284;28;20056;-93
2022/03/22 08:12:15;;;;;;;42.85;29.52;;;;;;;;;;4989583;28;20122;-93
2022/03/22 08:14:44;;;;;;;41.95;30.17;;;;;;;;;;4993818;28;20125;-94
2022/03/22 08:17:13;;;;;;;41.92;28.98;;;;;;;;;;4967797;28;20568;-94
2022/03/22 08:19:42;;;;;;;44.35;28.45;;;;;;;;;;4971366;28;20450;-93
2022/03/22 08:22:08;;;;;;;41.25;28.58;;;;;;;;;;4970596;28;20059;-95
2022/03/22 08:24:34;;;;;;;41.72;30.38;;;;;;;;;;4977796;28;20068;-94
2022/03/22 08:27:00;;;;;;;42.38;30.15;;;;;;;;;;4977709;28;20516;-93
2022/03/22 08:29:29;;;;;;;42.28;28.20;;;;;;;;;;4993116;28;20121;-92
2022/03/22 08:31:55;;;;;;;43.67;29.02;;;;;;;;;;4987401;28;20121;-95
2022/03/22 08:34:21;;;;;;;38.30;27.90;;;;;;;;;;4973996;28;20041;-93
2022/03/22 08:36:47;;;;;;;39.25;27.98;;;;;;;;;;4974314;28;20050;-94
2022/03/22 08:39:16;;;;;;;39.05;27.55;;;;;;;;;;4977928;28;20105;-94
2022/03/22 08:41:42;;;;;;;38.25;29.00;;;;;;;;;;4991858;28;20046;-95
2022/03/22 08:46:36;;;;;;;40.55;28.23;;;;;;;;;;4976342;28;20090;-93
2022/03/22 08:49:04;;;;;;;37.53;27.30;;;;;;;;;;4962463;28;20628;-94
2022/03/22 08:51:33;;;;;;;37.45;27.40;;;;;;;;;;4960462;28;20421;-94
2022/03/22 08:54:02;;;;;;;39.78;28.73;;;;;;;;;;4959359;28;20093;-95
2022/03/22 08:56:28;;;;;;;41.00;28.77;;;;;;;;;;4983926;28;20050;-94
2022/03/22 08:58:57;;;;;;;38.40;27.27;;;;;;;;;;4959089;28;20049;-94
2022/03/22 09:01:24;;;;;;;36.75;25.83;;;;;;;;;;4978182;28;20051;-93
2022/03/22 09:06:07;;;;;;;39.95;27.88;;;;;;;;;;4976584;28;20092;-93
2022/03/22 09:06:38;;;;;;;;;;;;;;;;;;4974189;28;20101;-93
2022/03/22 09:09:05;;;;;;;35.80;26.80;;;;;;;;;;4958229;28;20376;-94
2022/03/22 09:11:36;;;;;;;40.40;27.75;;;;;;;;;;4974471;28;20046;-93
2022/03/22 09:14:05;;;;;;;38.90;27.40;;;;;;;;;;4973890;28;20138;-94
2022/03/22 09:16:32;;;;;;;37.03;26.25;;;;;;;;;;4957940;28;20402;-93
2022/03/22 09:19:01;;;;;;;37.25;27.42;;;;;;;;;;4957341;28;20038;-93
2022/03/22 09:21:29;;;;;;;35.85;27.17;;;;;;;;;;4974466;28;20082;-95
2022/03/22 09:23:56;;;;;;;38.10;26.92;;;;;;;;;;4973856;28;20053;-92
2022/03/22 09:26:22;;;;;;;31.27;24.67;;;;;;;;;;4974132;28;20102;-93
2022/03/22 09:28:52;;;;;;;35.05;24.67;;;;;;;;;;4957789;28;20167;-92
2022/03/22 09:31:23;;;;;;;37.25;25.73;;;;;;;;;;4958029;28;20101;-93
2022/03/22 09:33:49;;;;;;;35.78;26.92;;;;;;;;;;4958639;28;20074;-93
2022/03/22 09:36:18;;;;;;;34.90;25.73;;;;;;;;;;4974013;28;20113;-93
2022/03/22 09:38:45;;;;;;;38.97;25.65;;;;;;;;;;4974857;28;20140;-95
2022/03/22 09:41:13;;;;;;;40.47;26.65;;;;;;;;;;4958201;28;20038;-92
2022/03/22 09:43:44;;;;;;;34.35;24.77;;;;;;;;;;4957303;28;20046;-92
2022/03/22 09:46:10;;;;;;;35.88;25.20;;;;;;;;;;4973825;28;20112;-92
2022/03/22 09:48:44;;;;;;;36.40;25.05;;;;;;;;;;4974468;28;20046;-94
2022/03/22 09:53:54;;;;;;;33.40;25.08;;;;;;;;;;4973738;28;20042;-94
2022/03/22 09:56:21;;;;;;;34.13;24.98;;;;;;;;;;4973794;28;20046;-93
2022/03/22 09:58:51;;;;;;;36.05;24.02;;;;;;;;;;4973685;28;20050;-94
2022/03/22 10:01:19;;;;;;;33.28;24.52;;;;;;;;;;4957436;28;20045;-94
2022/03/22 10:03:56;;;;;;;40.75;25.25;;;;;;;;;;4959474;28;20094;-93
2022/03/22 10:06:28;;;;;;;42.80;25.20;;;;;;;;;;4957583;28;20142;-93
2022/03/22 10:08:54;;;;;;;32.35;23.85;;;;;;;;;;4973445;28;20038;-91
2022/03/22 10:11:23;;;;;;;34.70;24.67;;;;;;;;;;4973083;28;20046;-92
2022/03/22 10:13:56;;;;;;;35.53;25.02;;;;;;;;;;4956449;28;20043;-93
2022/03/22 10:16:22;;;;;;;35.72;25.35;;;;;;;;;;4973346;28;20039;-94
2022/03/22 10:18:48;;;;;;;32.63;24.55;;;;;;;;;;4972620;28;20479;-93
2022/03/22 10:21:17;;;;;;;33.63;25.80;;;;;;;;;;4976077;28;20070;-93
2022/03/22 10:23:52;;;;;;;32.75;23.92;;;;;;;;;;4964459;28;20050;-95
2022/03/22 10:26:21;;;;;;;37.22;24.60;;;;;;;;;;4959721;28;20046;-93
2022/03/22 10:28:54;;;;;;;38.15;24.25;;;;;;;;;;4957357;28;20043;-93
2022/03/22 10:31:31;;;;;;;31.48;23.00;;;;;;;;;;4960386;28;20136;-94
2022/03/22 10:33:58;;;;;;;29.45;22.58;;;;;;;;;;4960830;28;20081;-93
2022/03/22 10:36:27;;;;;;;35.22;24.02;;;;;;;;;;4961085;28;20035;-91
2022/03/22 10:38:57;;;;;;;35.92;23.98;;;;;;;;;;4976830;28;20047;-94
2022/03/22 10:41:33;;;;;;;32.60;23.70;;;;;;;;;;4962198;28;20035;-94
2022/03/22 10:44:36;;;;;;;;;;;;;;;;;;;;;
2022/03/22 10:47:29;;;;;;;29.85;20.90;;;;;;;;;;4984000;28;20560;-93
2022/03/22 10:50:06;;;;;;;31.92;21.50;;;;;;;;;;4980675;28;20097;-94
2022/03/22 10:52:33;;;;;;;31.63;21.35;;;;;;;;;;4968420;28;20074;-95
2022/03/22 10:55:31;;;;;;;33.92;22.27;;;;;;;;;;4989593;28;20035;-94
2022/03/22 10:58:02;;;;;;;30.83;22.30;;;;;;;;;;4886886;29;20562;-95
2022/03/22 11:00:36;;;;;;;34.80;21.52;;;;;;;;;;4965560;28;20038;-94
2022/03/22 11:03:04;;;;;;;29.80;21.05;;;;;;;;;;4976664;28;20050;-94
2022/03/22 11:05:31;;;;;;;30.38;20.58;;;;;;;;;;4992365;28;20462;-94
2022/03/22 11:08:00;;;;;;;31.92;22.25;;;;;;;;;;4994652;28;20373;-94
2022/03/22 11:10:55;;;;;;;34.47;21.42;;;;;;;;;;4991287;28;20062;-93
2022/03/22 11:13:27;;;;;;;34.92;23.13;;;;;;;;;;4993313;28;20377;-94
2022/03/22 11:15:57;;;;;;;32.45;23.30;;;;;;;;;;4992069;28;20055;-94
2022/03/22 11:18:28;;;;;;;30.17;22.67;;;;;;;;;;4979584;28;20482;-94
2022/03/22 11:21:04;;;;;;;33.72;21.40;;;;;;;;;;4978192;28;20042;-94
2022/03/22 11:23:35;;;;;;;34.88;23.55;;;;;;;;;;4979173;28;20039;-94
2022/03/22 11:26:15;;;;;;;31.33;21.63;;;;;;;;;;4961514;28;20134;-95
2022/03/22 11:28:44;;;;;;;36.53;23.73;;;;;;;;;;4962470;28;20049;-95
2022/03/22 11:31:16;;;;;;;30.60;20.95;;;;;;;;;;4965476;28;20074;-94
2022/03/22 11:36:48;;;;;;;35.88;22.30;;;;;;;;;;4975754;28;20043;-95
2022/03/22 11:42:26;;;;;;;35.47;23.75;;;;;;;;;;4978777;28;20047;-94
2022/03/22 11:44:58;;;;;;;31.25;21.77;;;;;;;;;;4961662;28;20122;-95
2022/03/22 11:47:56;;;;;;;31.90;21.58;;;;;;;;;;4965755;28;20072;-94
2022/03/22 11:50:49;;;;;;;;;;;;;;;;;;;;;
2022/03/22 11:53:45;;;;;;;35.97;23.73;;;;;;;;;;4980357;28;20054;-94
2022/03/22 11:56:21;;;;;;;33.60;23.17;;;;;;;;;;4983371;28;20111;-93
2022/03/22 12:09:54;;;;;;;;;;;;;;;;;;;;;
2022/03/22 12:12:27;;;;;;;33.55;22.70;;;;;;;;;;4944727;28;20057;-95
2022/03/22 12:14:57;;;;;;;36.45;23.60;;;;;;;;;;4973725;28;20556;-94
2022/03/22 12:17:29;;;;;;;35.45;22.73;;;;;;;;;;4985405;28;20112;-94
2022/03/22 12:20:21;;;;;;;35.03;23.23;;;;;;;;;;5010490;28;20053;-94
2022/03/22 12:23:08;;;;;;;35.45;22.95;;;;;;;;;;5018099;28;20030;-95
2022/03/22 12:25:44;;;;;;;32.45;22.00;;;;;;;;;;5011266;28;20061;-94
2022/03/22 12:28:54;;;;;;;;;;;;;;;;;;;;;
2022/03/22 12:31:47;;;;;;;;;;;;;;;;;;;;;
2022/03/22 12:43:12;;;;;;;38.78;23.55;;;;;;;;;;4989034;28;20049;-93
2022/03/22 13:11:39;;;;;;;33.42;20.88;;;;;;;;;;4903126;29;20209;-91
2022/03/22 13:17:20;;;;;;;31.92;21.63;;;;;;;;;;4910503;29;20052;-94
2022/03/22 13:19:54;;;;;;;29.70;18.42;;;;;;;;;;4947334;28;20051;-93
2022/03/22 13:32:10;;;;;;;29.00;18.27;;;;;;;;;;5943720;23;20053;-92
2022/03/22 13:34:42;;;;;;;23.98;14.45;;;;;;;;;;4990452;28;20110;-92
2022/03/22 13:40:58;;;;;;;;;;;;;;;;;;;;;
2022/03/22 13:43:48;;;;;;;;;;;;;;;;;;4977658;28;20046;-92
2022/03/22 13:46:33;;;;;;;24.55;15.55;;;;;;;;;;4989753;28;19917;-92
2022/03/22 13:49:01;;;;;;;28.58;16.45;;;;;;;;;;4979310;28;20666;-94
2022/03/22 13:51:44;;;;;;;26.65;17.55;;;;;;;;;;4975209;28;20039;-90
2022/03/22 14:07:09;;;;;;;27.70;17.35;;;;;;;;;;4996009;28;20045;-93
2022/03/22 14:12:13;;;;;;;26.48;16.67;;;;;;;;;;5257458;23;20054;-92
2022/03/22 14:35:57;;;;;;;29.33;17.70;;;;;;;;;;5045242;22;20047;-96
2022/03/22 14:38:27;;;;;;;27.20;17.50;;;;;;;;;;4962661;28;20055;-95
2022/03/22 14:43:30;;;;;;;25.58;16.45;;;;;;;;;;5450390;23;20051;-94
2022/03/22 14:46:00;;;;;;;28.23;15.98;;;;;;;;;;4980826;28;20062;-94
2022/03/22 14:48:35;;;;;;;23.90;16.70;;;;;;;;;;4985889;28;20060;-93
2022/03/22 14:51:07;;;;;;;28.35;17.60;;;;;;;;;;4980982;28;20036;-92
2022/03/22 14:59:21;;;;;;;;;;;;;;;;;;;;;
2022/03/22 15:01:50;;;;;;;28.58;17.25;;;;;;;;;;5007518;28;20476;-96
2022/03/22 15:04:29;;;;;;;27.08;17.55;;;;;;;;;;5010169;28;20133;-92
2022/03/22 15:06:57;;;;;;;29.30;17.13;;;;;;;;;;5009007;28;20080;-93
2022/03/22 15:09:25;;;;;;;29.23;18.08;;;;;;;;;;5007356;28;20045;-92
2022/03/22 15:12:12;;;;;;;28.55;16.85;;;;;;;;;;5007469;28;20075;-94
2022/03/22 15:14:41;;;;;;;28.10;17.95;;;;;;;;;;5000255;28;20048;-92
2022/03/22 15:17:07;;;;;;;30.38;17.83;;;;;;;;;;4998021;28;20041;-93
2022/03/22 15:19:33;;;;;;;27.35;16.95;;;;;;;;;;4998999;28;20050;-92
2022/03/22 15:21:59;;;;;;;27.38;17.13;;;;;;;;;;4997829;28;20056;-93
2022/03/22 15:24:25;;;;;;;25.60;18.52;;;;;;;;;;4983527;28;20046;-94
2022/03/22 15:26:51;;;;;;;30.60;17.80;;;;;;;;;;4981975;28;20228;-93
2022/03/22 15:29:20;;;;;;;25.95;18.20;;;;;;;;;;5000293;28;20046;-94
2022/03/22 15:31:46;;;;;;;29.10;17.65;;;;;;;;;;4999290;28;20046;-93
2022/03/22 15:34:12;;;;;;;25.77;18.38;;;;;;;;;;4998740;28;20037;-92
2022/03/22 15:36:38;;;;;;;25.98;18.00;;;;;;;;;;4984139;28;20049;-93
2022/03/22 15:39:04;;;;;;;28.50;18.02;;;;;;;;;;4982730;28;20034;-94
2022/03/22 15:41:30;;;;;;;27.77;18.23;;;;;;;;;;4981158;28;20448;-94
2022/03/22 15:43:59;;;;;;;27.58;17.65;;;;;;;;;;4981594;28;20053;-92
2022/03/22 15:46:25;;;;;;;29.17;17.77;;;;;;;;;;4981067;28;20045;-93
2022/03/22 15:48:53;;;;;;;29.35;16.95;;;;;;;;;;4997969;28;20220;-93
2022/03/22 15:51:20;;;;;;;26.92;17.30;;;;;;;;;;4997533;28;20056;-94
2022/03/22 15:53:48;;;;;;;24.50;17.15;;;;;;;;;;4998045;28;20104;-92
2022/03/22 15:56:14;;;;;;;23.58;16.20;;;;;;;;;;4998529;28;20045;-94
2022/03/22 15:58:43;;;;;;;26.95;16.88;;;;;;;;;;4997731;28;20037;-92
2022/03/22 16:01:09;;;;;;;28.02;18.27;;;;;;;;;;4984799;28;20038;-92
2022/03/22 16:03:37;;;;;;;26.00;17.65;;;;;;;;;;4981999;28;20081;-93
2022/03/22 16:06:05;;;;;;;30.65;18.83;;;;;;;;;;4998504;28;20149;-94
2022/03/22 16:08:34;;;;;;;26.50;18.10;;;;;;;;;;4981693;28;20133;-92
2022/03/22 16:11:03;;;;;;;24.25;17.15;;;;;;;;;;4981146;28;20034;-94
2022/03/22 16:13:31;;;;;;;32.22;19.02;;;;;;;;;;4997284;28;20473;-92
2022/03/22 16:15:58;;;;;;;25.55;18.00;;;;;;;;;;4981242;28;20045;-94
2022/03/22 16:18:27;;;;;;;31.73;19.58;;;;;;;;;;4997332;28;20148;-94
2022/03/22 16:20:53;;;;;;;28.05;18.80;;;;;;;;;;4997810;28;20116;-94
2022/03/22 16:23:19;;;;;;;27.20;18.88;;;;;;;;;;4997681;28;20058;-95
2022/03/22 16:25:46;;;;;;;28.15;17.20;;;;;;;;;;4996981;28;20056;-92
2022/03/22 16:28:20;;;;;;;27.92;17.33;;;;;;;;;;4997315;28;20469;-96
2022/03/22 16:30:46;;;;;;;25.92;17.80;;;;;;;;;;4996522;28;20050;-92
2022/03/22 16:41:26;;;;;;;31.13;18.70;;;;;;;;;;4997127;28;20050;-93
2022/03/22 16:43:52;;;;;;;29.83;20.02;;;;;;;;;;4996649;28;20049;-93
2022/03/22 16:46:21;;;;;;;30.92;20.45;;;;;;;;;;4996267;28;20045;-92
2022/03/22 16:48:47;;;;;;;28.20;19.98;;;;;;;;;;4981239;28;20038;-92
2022/03/22 16:51:19;;;;;;;27.42;17.58;;;;;;;;;;4976789;28;20073;-93
2022/03/22 16:53:48;;;;;;;34.72;18.58;;;;;;;;;;4977463;28;20115;-94
2022/03/22 16:56:14;;;;;;;31.25;18.70;;;;;;;;;;4960785;28;20049;-93
2022/03/22 16:58:42;;;;;;;30.33;17.85;;;;;;;;;;4967729;28;20466;-93
2022/03/22 17:01:24;;;;;;;30.27;17.95;;;;;;;;;;4974791;28;20042;-92
2022/03/22 17:03:55;;;;;;;27.25;18.38;;;;;;;;;;4988117;28;20046;-95
2022/03/22 17:06:45;;;;;;;29.98;17.63;;;;;;;;;;4997069;28;20040;-91
2022/03/22 17:09:11;;;;;;;26.92;17.08;;;;;;;;;;5000700;28;20042;-95
2022/03/22 17:11:48;;;;;;;28.00;17.48;;;;;;;;;;5004900;28;20132;-93
2022/03/22 17:14:40;;;;;;;;;;;;;;;;;;;;;
2022/03/22 17:26:41;;;;;;;26.00;18.35;;;;;;;;;;4970553;28;20047;-94
2022/03/22 17:30:21;;;;;;;28.60;17.65;;;;;;;;;;4987635;28;20062;-92
2022/03/22 17:33:13;;;;;;;;;;;;;;;;;;;;;
2022/03/22 18:17:13;;;;;;;45.15;29.35;;;;;;;;;;4991907;28;20031;-90
2022/03/22 18:26:43;;;;;;;;;;;;;;;;;;;;;
2022/03/22 18:42:08;;;;;;;48.95;31.83;;;;;;;;;;5230141;23;20462;-94
2022/03/22 18:44:35;;;;;;;48.28;30.80;;;;;;;;;;4977681;28;20128;-94
2022/03/22 18:47:01;;;;;;;48.28;32.00;;;;;;;;;;4986081;28;20121;-93
2022/03/22 18:49:27;;;;;;;47.85;33.63;;;;;;;;;;4978491;28;20125;-93
2022/03/22 18:51:54;;;;;;;49.03;32.20;;;;;;;;;;4962595;28;20046;-94
2022/03/22 18:54:22;;;;;;;46.42;31.38;;;;;;;;;;4980875;28;20055;-92
2022/03/22 18:56:47;;;;;;;48.17;31.50;;;;;;;;;;4962615;28;20057;-93
2022/03/22 18:59:13;;;;;;;47.78;31.42;;;;;;;;;;4964456;28;20034;-93
2022/03/22 19:01:40;;;;;;;45.40;31.60;;;;;;;;;;4963561;28;20053;-93
2022/03/22 19:04:09;;;;;;;47.67;31.95;;;;;;;;;;4964328;28;20056;-94
2022/03/22 19:06:35;;;;;;;45.72;32.72;;;;;;;;;;4978884;28;20046;-92
2022/03/22 19:09:03;;;;;;;47.45;32.33;;;;;;;;;;4979638;28;20504;-95
2022/03/22 19:11:32;;;;;;;47.15;32.53;;;;;;;;;;4978343;28;20038;-92